Time;durP1;ratioP1;P1;durP2;ratioP2;P2;SDS_P1;SDS_P2;PMS_P1;PMS_P2;Temp;Humidity;BMP_temperature;BMP_pressure;BME280_temperature;BME280_humidity;BME280_pressure;Samples;Min_cycle;Max_cycle;Signal;HPM_P1;HPM_P2
2023/06/19 00:01:04;;;;;;;7.77;7.03;;;;;;;;;;5100435;28;20204;-77
2023/06/19 00:03:30;;;;;;;7.13;6.63;;;;;;;;;;5109075;28;20671;-76
2023/06/19 00:05:58;;;;;;;9.43;7.37;;;;;;;;;;5108325;28;20199;-76
2023/06/19 00:08:25;;;;;;;7.37;6.77;;;;;;;;;;5099469;28;20200;-77
2023/06/19 00:10:52;;;;;;;11.27;6.97;;;;;;;;;;5108558;28;20223;-76
2023/06/19 00:13:19;;;;;;;7.97;7.10;;;;;;;;;;5099290;28;20196;-77
2023/06/19 00:15:46;;;;;;;7.47;6.80;;;;;;;;;;5097376;28;20261;-76
2023/06/19 00:18:13;;;;;;;7.10;6.40;;;;;;;;;;5110693;28;20204;-76
2023/06/19 00:20:40;;;;;;;8.70;7.37;;;;;;;;;;5109077;28;20203;-77
2023/06/19 00:23:11;;;;;;;7.53;6.73;;;;;;;;;;5098757;28;20207;-77
2023/06/19 00:25:38;;;;;;;7.67;7.07;;;;;;;;;;5110364;28;20631;-77
2023/06/19 00:28:12;;;;;;;6.80;6.20;;;;;;;;;;5103811;28;20203;-77
2023/06/19 00:30:39;;;;;;;11.17;6.73;;;;;;;;;;5116661;28;20198;-77
2023/06/19 00:33:06;;;;;;;7.83;7.13;;;;;;;;;;5105062;28;20260;-76
2023/06/19 00:35:33;;;;;;;7.37;6.77;;;;;;;;;;5104512;28;20208;-76
2023/06/19 00:38:00;;;;;;;8.10;6.67;;;;;;;;;;5109627;28;20204;-76
2023/06/19 00:40:30;;;;;;;7.37;6.60;;;;;;;;;;5098146;28;20231;-77
2023/06/19 00:42:57;;;;;;;6.53;5.93;;;;;;;;;;5117784;28;20211;-76
2023/06/19 00:45:25;;;;;;;6.83;6.20;;;;;;;;;;5117119;28;20207;-76
2023/06/19 00:47:52;;;;;;;8.67;6.70;;;;;;;;;;5117513;28;20199;-76
2023/06/19 00:50:19;;;;;;;7.37;6.67;;;;;;;;;;5103401;28;20265;-77
2023/06/19 00:52:46;;;;;;;7.33;6.73;;;;;;;;;;5107580;28;20224;-76
2023/06/19 00:55:13;;;;;;;7.20;6.63;;;;;;;;;;5100081;28;20226;-77
2023/06/19 00:57:41;;;;;;;6.47;5.97;;;;;;;;;;5116889;28;20204;-76
2023/06/19 01:00:12;;;;;;;7.00;6.23;;;;;;;;;;5100381;28;20240;-77
2023/06/19 01:02:39;;;;;;;7.00;6.40;;;;;;;;;;5096836;28;20207;-77
2023/06/19 01:05:06;;;;;;;7.73;6.93;;;;;;;;;;5110394;28;20670;-76
2023/06/19 01:07:40;;;;;;;10.37;6.63;;;;;;;;;;5097478;28;20196;-76
2023/06/19 01:10:10;;;;;;;7.53;6.73;;;;;;;;;;5110536;28;20224;-77
2023/06/19 01:12:38;;;;;;;7.40;6.70;;;;;;;;;;5097076;28;20220;-77
2023/06/19 01:15:09;;;;;;;7.90;7.20;;;;;;;;;;5107363;28;20197;-76
2023/06/19 01:17:36;;;;;;;7.90;7.07;;;;;;;;;;5106744;28;20621;-76
2023/06/19 01:20:10;;;;;;;6.97;6.07;;;;;;;;;;5100475;28;20203;-76
2023/06/19 01:22:38;;;;;;;6.80;6.30;;;;;;;;;;5099804;28;20682;-77
2023/06/19 01:25:06;;;;;;;7.00;6.40;;;;;;;;;;5114308;28;20199;-76
2023/06/19 01:27:33;;;;;;;7.70;7.13;;;;;;;;;;5099616;28;20204;-76
2023/06/19 01:30:01;;;;;;;8.60;6.63;;;;;;;;;;5105332;28;20196;-76
2023/06/19 01:32:37;;;;;;;8.53;7.23;;;;;;;;;;5095250;28;20227;-76
2023/06/19 01:35:05;;;;;;;11.97;6.87;;;;;;;;;;5103682;28;20204;-76
2023/06/19 01:37:33;;;;;;;6.43;5.93;;;;;;;;;;5110427;28;20196;-76
2023/06/19 01:40:04;;;;;;;7.10;6.50;;;;;;;;;;5113595;28;20200;-76
2023/06/19 01:42:31;;;;;;;7.00;6.40;;;;;;;;;;5113318;28;20233;-76
2023/06/19 01:44:57;;;;;;;6.77;6.17;;;;;;;;;;5113335;28;20207;-76
2023/06/19 01:47:24;;;;;;;8.53;6.97;;;;;;;;;;5099540;28;20191;-76
2023/06/19 01:49:51;;;;;;;6.60;6.10;;;;;;;;;;5101770;28;20224;-76
2023/06/19 01:52:18;;;;;;;7.37;6.67;;;;;;;;;;5111150;28;20223;-76
2023/06/19 01:54:45;;;;;;;6.93;6.33;;;;;;;;;;5101929;28;20205;-76
2023/06/19 01:57:13;;;;;;;6.57;6.07;;;;;;;;;;5092760;28;20649;-77
2023/06/19 01:59:40;;;;;;;8.03;6.70;;;;;;;;;;5092751;28;20744;-77
2023/06/19 02:02:07;;;;;;;6.70;6.00;;;;;;;;;;5098443;28;20196;-77
2023/06/19 02:04:34;;;;;;;6.93;6.27;;;;;;;;;;5100487;28;20290;-76
2023/06/19 02:07:01;;;;;;;6.73;6.13;;;;;;;;;;5097959;28;20249;-76
2023/06/19 02:09:28;;;;;;;7.80;6.73;;;;;;;;;;5113267;28;20203;-76
2023/06/19 02:11:54;;;;;;;10.60;7.17;;;;;;;;;;5099146;28;20215;-76
2023/06/19 02:14:23;;;;;;;7.67;6.77;;;;;;;;;;5113281;28;20561;-76
2023/06/19 02:16:49;;;;;;;6.63;6.13;;;;;;;;;;5092028;28;20218;-77
2023/06/19 02:19:16;;;;;;;7.37;6.57;;;;;;;;;;5106430;28;20203;-77
2023/06/19 02:21:43;;;;;;;7.70;6.30;;;;;;;;;;5099610;28;20207;-77
2023/06/19 02:24:10;;;;;;;6.90;6.30;;;;;;;;;;5098174;28;20204;-77
2023/06/19 02:26:36;;;;;;;6.50;5.90;;;;;;;;;;5099990;28;20260;-77
2023/06/19 02:29:03;;;;;;;7.10;6.40;;;;;;;;;;5099203;28;20257;-76
2023/06/19 02:31:32;;;;;;;6.70;6.07;;;;;;;;;;5104628;28;20253;-76
2023/06/19 02:33:58;;;;;;;10.00;6.67;;;;;;;;;;5092017;28;20299;-77
2023/06/19 02:36:25;;;;;;;6.70;6.20;;;;;;;;;;5100730;28;20211;-76
2023/06/19 02:38:52;;;;;;;6.67;6.07;;;;;;;;;;5110730;28;20206;-76
2023/06/19 02:41:19;;;;;;;6.60;6.00;;;;;;;;;;5100634;28;20203;-76
2023/06/19 02:43:46;;;;;;;7.00;6.40;;;;;;;;;;5098514;28;20295;-77
2023/06/19 02:46:13;;;;;;;8.83;7.47;;;;;;;;;;5112272;28;20231;-76
2023/06/19 02:48:41;;;;;;;7.33;6.60;;;;;;;;;;5098092;28;20204;-77
2023/06/19 02:51:08;;;;;;;7.10;6.40;;;;;;;;;;5111864;28;20219;-77
2023/06/19 02:53:35;;;;;;;7.47;6.87;;;;;;;;;;5095649;28;20250;-76
2023/06/19 02:56:02;;;;;;;7.00;6.37;;;;;;;;;;5092218;28;20197;-76
2023/06/19 02:58:29;;;;;;;6.87;6.33;;;;;;;;;;5108167;28;20209;-76
2023/06/19 03:00:55;;;;;;;6.70;6.10;;;;;;;;;;5112054;28;20685;-76
2023/06/19 03:03:22;;;;;;;6.13;5.63;;;;;;;;;;5094721;28;20698;-76
2023/06/19 03:05:50;;;;;;;7.10;6.50;;;;;;;;;;5102607;28;20200;-76
2023/06/19 03:08:17;;;;;;;6.90;6.10;;;;;;;;;;5097780;28;20195;-76
2023/06/19 03:10:44;;;;;;;7.20;6.60;;;;;;;;;;5111582;28;20625;-76
2023/06/19 03:13:11;;;;;;;6.93;6.33;;;;;;;;;;5094114;28;20228;-76
2023/06/19 03:15:38;;;;;;;6.30;5.60;;;;;;;;;;5092235;28;20200;-76
2023/06/19 03:18:07;;;;;;;6.97;6.13;;;;;;;;;;5104905;28;20200;-76
2023/06/19 03:20:34;;;;;;;6.63;6.03;;;;;;;;;;5102615;28;20207;-76
2023/06/19 03:23:02;;;;;;;7.93;5.97;;;;;;;;;;5111669;28;20196;-76
2023/06/19 03:25:34;;;;;;;6.07;5.57;;;;;;;;;;5112109;28;20207;-77
2023/06/19 03:28:01;;;;;;;8.70;6.23;;;;;;;;;;5111511;28;20206;-76
2023/06/19 03:30:28;;;;;;;6.30;5.70;;;;;;;;;;5111617;28;20206;-77
2023/06/19 03:32:55;;;;;;;6.77;6.07;;;;;;;;;;5111376;28;20237;-76
2023/06/19 03:35:21;;;;;;;8.27;6.13;;;;;;;;;;5111792;28;20200;-77
2023/06/19 03:37:48;;;;;;;5.97;5.47;;;;;;;;;;5096883;28;20200;-77
2023/06/19 03:40:17;;;;;;;5.60;5.20;;;;;;;;;;5111810;28;20199;-77
2023/06/19 03:42:43;;;;;;;5.17;4.67;;;;;;;;;;5104257;28;20258;-77
2023/06/19 03:45:11;;;;;;;7.77;5.33;;;;;;;;;;5090997;28;20218;-77
2023/06/19 03:47:37;;;;;;;6.37;4.70;;;;;;;;;;5090779;28;20203;-76
2023/06/19 03:50:09;;;;;;;5.47;4.87;;;;;;;;;;5104092;28;20872;-76
2023/06/19 03:52:36;;;;;;;5.67;5.27;;;;;;;;;;5088753;28;20319;-81
2023/06/19 03:55:03;;;;;;;5.67;5.13;;;;;;;;;;5092313;28;20212;-81
2023/06/19 03:57:31;;;;;;;4.97;4.57;;;;;;;;;;5100589;28;20211;-78
2023/06/19 03:59:58;;;;;;;5.23;4.83;;;;;;;;;;5105082;28;20214;-80
2023/06/19 04:02:25;;;;;;;6.07;5.57;;;;;;;;;;5102160;28;20204;-80
2023/06/19 04:04:52;;;;;;;6.10;4.80;;;;;;;;;;5104415;28;20235;-81
2023/06/19 04:07:18;;;;;;;5.10;4.70;;;;;;;;;;5091093;28;20211;-81
2023/06/19 04:09:45;;;;;;;5.47;5.00;;;;;;;;;;5093810;28;20192;-80
2023/06/19 04:12:12;;;;;;;5.63;5.20;;;;;;;;;;5108408;28;20695;-82
2023/06/19 04:14:40;;;;;;;5.30;4.80;;;;;;;;;;5096119;28;20204;-81
2023/06/19 04:17:07;;;;;;;6.23;5.40;;;;;;;;;;5099477;28;20187;-81
2023/06/19 04:19:34;;;;;;;5.17;4.77;;;;;;;;;;5097596;28;20196;-81
2023/06/19 04:22:01;;;;;;;12.10;5.27;;;;;;;;;;5101428;28;20211;-81
2023/06/19 04:24:27;;;;;;;5.47;4.90;;;;;;;;;;5095691;28;20202;-80
2023/06/19 04:26:54;;;;;;;6.03;5.53;;;;;;;;;;5100025;28;20689;-80
2023/06/19 04:29:21;;;;;;;8.37;5.20;;;;;;;;;;5097228;28;20600;-81
2023/06/19 04:31:51;;;;;;;8.27;5.37;;;;;;;;;;5101234;28;20204;-80
2023/06/19 04:34:20;;;;;;;5.00;4.60;;;;;;;;;;5089662;28;20231;-81
2023/06/19 04:36:47;;;;;;;5.87;5.37;;;;;;;;;;5090571;28;20278;-81
2023/06/19 04:39:14;;;;;;;5.70;5.27;;;;;;;;;;5104151;28;20199;-80
2023/06/19 04:41:43;;;;;;;5.60;5.10;;;;;;;;;;5090361;28;20690;-81
2023/06/19 04:44:11;;;;;;;5.73;5.23;;;;;;;;;;5095384;28;20245;-81
2023/06/19 04:46:38;;;;;;;6.70;5.53;;;;;;;;;;5110474;28;20576;-81
2023/06/19 04:49:07;;;;;;;4.93;4.53;;;;;;;;;;5092007;28;20718;-80
2023/06/19 04:51:34;;;;;;;7.60;5.93;;;;;;;;;;5107566;28;20255;-81
2023/06/19 04:54:01;;;;;;;5.17;4.70;;;;;;;;;;5114474;28;20320;-80
2023/06/19 04:56:28;;;;;;;7.13;5.70;;;;;;;;;;5114484;28;20207;-81
2023/06/19 04:58:56;;;;;;;7.53;5.63;;;;;;;;;;5114053;28;20278;-81
2023/06/19 05:01:27;;;;;;;9.33;5.50;;;;;;;;;;5101057;28;20702;-81
2023/06/19 05:03:55;;;;;;;5.63;5.13;;;;;;;;;;5101688;28;20203;-80
2023/06/19 05:06:23;;;;;;;7.17;5.13;;;;;;;;;;5113734;28;20203;-81
2023/06/19 05:08:50;;;;;;;8.00;5.67;;;;;;;;;;5113925;28;20682;-80
2023/06/19 05:11:17;;;;;;;6.40;5.87;;;;;;;;;;5112479;28;20208;-81
2023/06/19 05:13:44;;;;;;;6.63;6.03;;;;;;;;;;5101672;28;20610;-81
2023/06/19 05:16:11;;;;;;;6.03;5.53;;;;;;;;;;5114502;28;20199;-81
2023/06/19 05:18:38;;;;;;;8.37;5.90;;;;;;;;;;5114118;28;20214;-81
2023/06/19 05:21:04;;;;;;;6.13;5.63;;;;;;;;;;5113647;28;20203;-81
2023/06/19 05:23:35;;;;;;;6.63;6.03;;;;;;;;;;5105700;28;20207;-81
2023/06/19 05:26:02;;;;;;;6.40;5.80;;;;;;;;;;5109437;28;20678;-81
2023/06/19 05:28:29;;;;;;;7.17;5.57;;;;;;;;;;5114189;28;20282;-81
2023/06/19 05:30:55;;;;;;;6.50;5.93;;;;;;;;;;5100250;28;20568;-81
2023/06/19 05:33:24;;;;;;;6.50;5.67;;;;;;;;;;5104022;28;20224;-81
2023/06/19 05:35:53;;;;;;;7.13;6.43;;;;;;;;;;5107236;28;20200;-81
2023/06/19 05:38:20;;;;;;;6.23;5.73;;;;;;;;;;5092915;28;20291;-80
2023/06/19 05:40:48;;;;;;;6.17;5.67;;;;;;;;;;5097678;28;20206;-80
2023/06/19 05:43:15;;;;;;;6.03;5.43;;;;;;;;;;5102295;28;20204;-81
2023/06/19 05:45:42;;;;;;;10.60;7.03;;;;;;;;;;5097612;28;20200;-80
2023/06/19 05:48:08;;;;;;;6.13;5.60;;;;;;;;;;5102724;28;20208;-81
2023/06/19 05:50:35;;;;;;;6.80;6.30;;;;;;;;;;5099834;28;20310;-80
2023/06/19 05:53:03;;;;;;;6.20;5.67;;;;;;;;;;5101145;28;20236;-81
2023/06/19 05:55:30;;;;;;;6.77;6.17;;;;;;;;;;5098459;28;20253;-81
2023/06/19 05:57:58;;;;;;;6.70;6.10;;;;;;;;;;5100841;28;20666;-80
2023/06/19 06:00:25;;;;;;;6.47;5.97;;;;;;;;;;5106120;28;20208;-80
2023/06/19 06:02:52;;;;;;;6.10;5.60;;;;;;;;;;5105834;28;20594;-80
2023/06/19 06:05:20;;;;;;;6.43;5.83;;;;;;;;;;5113428;28;20231;-80
2023/06/19 06:07:47;;;;;;;5.87;5.47;;;;;;;;;;5112964;28;20203;-80
2023/06/19 06:10:14;;;;;;;6.97;6.40;;;;;;;;;;5092973;28;20207;-81
2023/06/19 06:12:40;;;;;;;6.37;5.87;;;;;;;;;;5092712;28;20201;-80
2023/06/19 06:15:09;;;;;;;8.63;5.83;;;;;;;;;;5106279;28;20211;-81
2023/06/19 06:17:36;;;;;;;6.53;5.93;;;;;;;;;;5106096;28;20200;-81
2023/06/19 06:20:08;;;;;;;6.80;6.20;;;;;;;;;;5105952;28;20211;-80
2023/06/19 06:22:36;;;;;;;7.40;6.53;;;;;;;;;;5106136;28;20678;-80
2023/06/19 06:25:03;;;;;;;7.37;6.70;;;;;;;;;;5101039;28;20261;-81
2023/06/19 06:27:30;;;;;;;8.10;6.53;;;;;;;;;;5098889;28;20678;-80
2023/06/19 06:29:56;;;;;;;6.53;6.03;;;;;;;;;;5104498;28;20196;-81
2023/06/19 06:32:26;;;;;;;6.93;6.13;;;;;;;;;;5107233;28;20207;-81
2023/06/19 06:34:53;;;;;;;6.87;6.17;;;;;;;;;;5104676;28;20224;-81
2023/06/19 06:37:22;;;;;;;23.37;10.70;;;;;;;;;;5105723;28;20234;-81
2023/06/19 06:39:49;;;;;;;7.43;6.57;;;;;;;;;;5101734;28;20199;-81
2023/06/19 06:42:16;;;;;;;6.63;6.13;;;;;;;;;;5110022;28;20234;-81
2023/06/19 06:44:43;;;;;;;11.83;6.70;;;;;;;;;;5092933;28;20215;-81
2023/06/19 06:47:09;;;;;;;7.57;6.87;;;;;;;;;;5105060;28;20207;-81
2023/06/19 06:49:38;;;;;;;8.83;6.50;;;;;;;;;;5101865;28;20204;-80
2023/06/19 06:52:06;;;;;;;6.63;6.03;;;;;;;;;;5095503;28;20196;-80
2023/06/19 06:54:33;;;;;;;7.10;6.47;;;;;;;;;;5102259;28;20230;-81
2023/06/19 06:57:00;;;;;;;6.37;5.77;;;;;;;;;;5098469;28;21231;-80
2023/06/19 06:59:27;;;;;;;8.53;7.07;;;;;;;;;;5102198;28;20277;-80
2023/06/19 07:01:58;;;;;;;16.80;9.00;;;;;;;;;;5095675;28;20287;-80
2023/06/19 07:04:25;;;;;;;6.73;6.13;;;;;;;;;;5100560;28;20200;-80
2023/06/19 07:06:53;;;;;;;7.77;6.90;;;;;;;;;;5096765;28;20760;-80
2023/06/19 07:09:21;;;;;;;7.00;6.37;;;;;;;;;;5100210;28;20200;-80
2023/06/19 07:11:47;;;;;;;6.10;5.60;;;;;;;;;;5104264;28;20204;-80
2023/06/19 07:14:17;;;;;;;6.37;5.87;;;;;;;;;;5091752;28;20227;-80
2023/06/19 07:16:44;;;;;;;5.73;5.33;;;;;;;;;;5097861;28;20200;-80
2023/06/19 07:19:11;;;;;;;6.00;5.50;;;;;;;;;;5098920;28;20269;-80
2023/06/19 07:21:38;;;;;;;5.83;5.33;;;;;;;;;;5097869;28;20207;-81
2023/06/19 07:24:06;;;;;;;6.10;5.50;;;;;;;;;;5098764;28;20257;-80
2023/06/19 07:26:34;;;;;;;5.83;5.40;;;;;;;;;;5098638;28;20196;-80
2023/06/19 07:29:01;;;;;;;6.23;5.73;;;;;;;;;;5111468;28;20286;-80
2023/06/19 07:31:27;;;;;;;5.70;5.20;;;;;;;;;;5098859;28;20204;-80
2023/06/19 07:33:54;;;;;;;5.90;5.40;;;;;;;;;;5097354;28;20820;-81
2023/06/19 07:36:21;;;;;;;5.67;5.07;;;;;;;;;;5104427;28;20705;-80
2023/06/19 07:38:48;;;;;;;4.93;4.53;;;;;;;;;;5104520;28;20689;-80
2023/06/19 07:41:16;;;;;;;6.10;5.60;;;;;;;;;;5099131;28;20584;-80
2023/06/19 07:43:43;;;;;;;6.97;5.40;;;;;;;;;;5096093;28;20211;-80
2023/06/19 07:46:10;;;;;;;5.60;5.20;;;;;;;;;;5099375;28;20203;-80
2023/06/19 07:48:37;;;;;;;5.40;4.57;;;;;;;;;;5111031;28;20670;-81
2023/06/19 07:51:04;;;;;;;5.57;4.77;;;;;;;;;;5102802;28;20231;-80
2023/06/19 07:53:30;;;;;;;5.63;5.17;;;;;;;;;;5106076;28;20728;-80
2023/06/19 07:55:57;;;;;;;5.10;4.70;;;;;;;;;;5102940;28;20207;-79
2023/06/19 07:58:25;;;;;;;6.53;6.03;;;;;;;;;;5106186;28;20202;-80
2023/06/19 08:00:52;;;;;;;4.93;4.53;;;;;;;;;;5102485;28;20589;-80
2023/06/19 08:03:19;;;;;;;5.20;4.73;;;;;;;;;;5090506;28;20205;-80
2023/06/19 08:05:46;;;;;;;5.47;4.53;;;;;;;;;;5100453;28;20207;-80
2023/06/19 08:08:13;;;;;;;5.87;4.37;;;;;;;;;;5108245;28;20670;-81
2023/06/19 08:10:40;;;;;;;6.87;5.30;;;;;;;;;;5090663;28;20204;-81
2023/06/19 08:13:07;;;;;;;5.13;4.73;;;;;;;;;;5104501;28;20227;-79
2023/06/19 08:15:37;;;;;;;4.80;4.40;;;;;;;;;;5091414;28;20204;-80
2023/06/19 08:18:04;;;;;;;5.53;5.13;;;;;;;;;;5094287;28;20199;-80
2023/06/19 08:20:31;;;;;;;8.13;6.30;;;;;;;;;;5111067;28;20256;-80
2023/06/19 08:22:58;;;;;;;7.40;6.27;;;;;;;;;;5097736;28;20230;-80
2023/06/19 08:25:24;;;;;;;7.23;4.57;;;;;;;;;;5104566;28;20804;-80
2023/06/19 08:27:51;;;;;;;4.80;4.40;;;;;;;;;;5111955;28;20248;-80
2023/06/19 08:30:18;;;;;;;5.00;4.60;;;;;;;;;;5104855;28;20226;-80
2023/06/19 08:32:48;;;;;;;9.63;5.43;;;;;;;;;;5108145;28;20196;-80
2023/06/19 08:35:15;;;;;;;5.20;4.70;;;;;;;;;;5106134;28;20219;-81
2023/06/19 08:37:41;;;;;;;5.50;4.97;;;;;;;;;;5114353;28;20205;-80
2023/06/19 08:40:10;;;;;;;4.97;4.57;;;;;;;;;;5103336;28;20204;-81
2023/06/19 08:42:36;;;;;;;5.87;5.27;;;;;;;;;;5108667;28;20200;-80
2023/06/19 08:45:04;;;;;;;5.40;4.77;;;;;;;;;;5107089;28;20199;-80
2023/06/19 08:47:31;;;;;;;6.70;5.10;;;;;;;;;;5100600;28;20665;-80
2023/06/19 08:50:00;;;;;;;4.97;4.57;;;;;;;;;;5114988;28;20779;-80
2023/06/19 08:52:27;;;;;;;4.67;4.37;;;;;;;;;;5100600;28;20713;-80
2023/06/19 08:54:53;;;;;;;4.53;4.23;;;;;;;;;;5102466;28;20247;-80
2023/06/19 08:57:21;;;;;;;5.87;4.40;;;;;;;;;;5114121;28;20210;-80
2023/06/19 08:59:51;;;;;;;5.07;4.60;;;;;;;;;;5114402;28;20682;-80
2023/06/19 09:02:18;;;;;;;5.00;4.55;;;;;;;;;;5094478;28;20204;-80
2023/06/19 09:04:45;;;;;;;5.97;4.53;;;;;;;;;;5107531;28;20758;-81
2023/06/19 09:07:15;;;;;;;6.50;4.50;;;;;;;;;;5101340;28;20199;-81
2023/06/19 09:09:46;;;;;;;5.20;4.63;;;;;;;;;;5100903;28;20298;-80
2023/06/19 09:12:15;;;;;;;5.07;4.65;;;;;;;;;;5106162;28;20232;-80
2023/06/19 09:14:43;;;;;;;5.30;4.80;;;;;;;;;;5107272;28;20234;-80
2023/06/19 09:17:12;;;;;;;6.27;4.33;;;;;;;;;;5103031;28;20203;-81
2023/06/19 09:19:39;;;;;;;4.53;4.13;;;;;;;;;;5097675;28;20199;-81
2023/06/19 09:22:08;;;;;;;4.97;4.47;;;;;;;;;;5104184;28;20299;-80
2023/06/19 09:24:37;;;;;;;5.00;4.57;;;;;;;;;;5100660;28;20188;-80
2023/06/19 09:27:11;;;;;;;8.75;4.28;;;;;;;;;;5102967;28;20200;-80
2023/06/19 09:29:39;;;;;;;6.10;5.22;;;;;;;;;;5112688;28;20191;-80
2023/06/19 09:32:16;;;;;;;6.18;5.68;;;;;;;;;;5114220;28;20623;-80
2023/06/19 09:34:43;;;;;;;6.30;5.78;;;;;;;;;;5106050;28;20231;-80
2023/06/19 09:37:09;;;;;;;5.43;5.03;;;;;;;;;;5107469;28;20207;-81
2023/06/19 09:39:39;;;;;;;6.00;5.50;;;;;;;;;;5106627;28;20207;-80
2023/06/19 09:42:09;;;;;;;6.15;5.43;;;;;;;;;;5107964;28;20199;-80
2023/06/19 09:44:41;;;;;;;4.72;4.43;;;;;;;;;;5105308;28;20294;-80
2023/06/19 09:47:18;;;;;;;5.63;5.13;;;;;;;;;;5106862;28;20200;-80
2023/06/19 09:49:49;;;;;;;6.38;5.82;;;;;;;;;;5103803;28;20694;-80
2023/06/19 09:52:16;;;;;;;5.13;4.78;;;;;;;;;;5108489;28;20230;-80
2023/06/19 09:54:45;;;;;;;5.15;4.75;;;;;;;;;;5093243;28;20263;-81
2023/06/19 09:57:13;;;;;;;5.30;4.90;;;;;;;;;;5106394;28;20200;-80
2023/06/19 09:59:41;;;;;;;5.55;5.07;;;;;;;;;;5105458;28;20231;-80
2023/06/19 10:02:09;;;;;;;5.18;4.78;;;;;;;;;;5107275;28;20232;-80
2023/06/19 10:04:45;;;;;;;6.30;5.70;;;;;;;;;;5105652;28;20235;-80
2023/06/19 10:07:18;;;;;;;5.53;5.00;;;;;;;;;;5106004;28;20196;-80
2023/06/19 10:10:00;;;;;;;6.00;5.50;;;;;;;;;;5107864;28;20234;-80
2023/06/19 10:12:40;;;;;;;5.50;5.00;;;;;;;;;;5112955;28;20238;-79
2023/06/19 10:15:12;;;;;;;5.55;4.82;;;;;;;;;;5093769;28;20770;-80
2023/06/19 10:17:43;;;;;;;9.25;4.80;;;;;;;;;;5093064;28;20200;-80
2023/06/19 10:20:31;;;;;;;5.05;4.55;;;;;;;;;;5112963;28;20203;-81
2023/06/19 10:23:00;;;;;;;4.70;4.35;;;;;;;;;;5108984;28;20192;-79
2023/06/19 10:25:31;;;;;;;5.55;5.05;;;;;;;;;;5103991;28;20206;-80
2023/06/19 10:27:58;;;;;;;5.68;5.18;;;;;;;;;;5099520;28;20203;-80
2023/06/19 10:30:25;;;;;;;6.03;5.10;;;;;;;;;;5113336;28;20206;-80
2023/06/19 10:32:53;;;;;;;5.43;4.78;;;;;;;;;;5098914;28;20218;-80
2023/06/19 10:35:21;;;;;;;5.72;4.80;;;;;;;;;;5100769;28;20228;-80
2023/06/19 10:37:48;;;;;;;5.70;5.28;;;;;;;;;;5092365;28;20253;-80
2023/06/19 10:40:15;;;;;;;4.97;4.57;;;;;;;;;;5092843;28;20269;-80
2023/06/19 10:42:44;;;;;;;11.20;5.38;;;;;;;;;;5105745;28;20250;-80
2023/06/19 10:45:13;;;;;;;5.90;5.38;;;;;;;;;;5092046;28;20295;-80
2023/06/19 10:47:41;;;;;;;5.90;5.45;;;;;;;;;;5099255;28;20199;-80
2023/06/19 10:50:11;;;;;;;6.95;6.35;;;;;;;;;;5112537;28;20227;-80
2023/06/19 10:52:41;;;;;;;7.13;6.53;;;;;;;;;;5099665;28;20256;-80
2023/06/19 10:55:11;;;;;;;6.32;5.35;;;;;;;;;;5112156;28;20259;-80
2023/06/19 10:57:38;;;;;;;6.05;5.55;;;;;;;;;;5112863;28;20207;-80
2023/06/19 11:00:12;;;;;;;6.20;5.78;;;;;;;;;;5096766;28;20683;-80
2023/06/19 11:02:42;;;;;;;6.60;5.75;;;;;;;;;;5091796;28;20206;-79
2023/06/19 11:05:10;;;;;;;6.95;6.30;;;;;;;;;;5095281;28;20195;-80
2023/06/19 11:07:37;;;;;;;6.68;6.18;;;;;;;;;;5112183;28;20199;-80
2023/06/19 11:10:05;;;;;;;7.03;6.38;;;;;;;;;;5108059;28;20249;-79
2023/06/19 11:12:32;;;;;;;7.20;6.53;;;;;;;;;;5091483;28;20200;-79
2023/06/19 11:15:00;;;;;;;6.30;5.27;;;;;;;;;;5091878;28;20223;-80
2023/06/19 11:17:28;;;;;;;5.70;4.78;;;;;;;;;;5103504;28;20286;-79
2023/06/19 11:19:58;;;;;;;5.22;4.82;;;;;;;;;;5111680;28;20203;-80
2023/06/19 11:22:36;;;;;;;6.40;5.80;;;;;;;;;;5111566;28;20685;-80
2023/06/19 11:25:03;;;;;;;5.93;5.53;;;;;;;;;;5091742;28;20207;-79
2023/06/19 11:27:31;;;;;;;7.50;6.17;;;;;;;;;;5105127;28;20330;-80
2023/06/19 11:29:59;;;;;;;7.53;5.90;;;;;;;;;;5098478;28;20196;-79
2023/06/19 11:32:34;;;;;;;5.80;5.30;;;;;;;;;;5097534;28;20293;-80
2023/06/19 11:35:08;;;;;;;6.93;6.33;;;;;;;;;;5102485;28;20629;-80
2023/06/19 11:37:35;;;;;;;6.67;5.97;;;;;;;;;;5104720;28;20204;-80
2023/06/19 11:40:09;;;;;;;6.32;5.82;;;;;;;;;;5091431;28;20653;-79
2023/06/19 11:42:46;;;;;;;6.77;6.27;;;;;;;;;;5104995;28;20273;-79
2023/06/19 11:45:12;;;;;;;8.65;5.65;;;;;;;;;;5104748;28;20752;-80
2023/06/19 11:47:41;;;;;;;7.45;6.75;;;;;;;;;;5111120;28;20203;-79
2023/06/19 11:50:09;;;;;;;6.63;6.13;;;;;;;;;;5098434;28;20224;-79
2023/06/19 11:52:35;;;;;;;7.53;6.10;;;;;;;;;;5098664;28;20199;-80
2023/06/19 11:55:02;;;;;;;6.53;5.93;;;;;;;;;;5097463;28;20292;-80
2023/06/19 11:57:29;;;;;;;7.53;6.90;;;;;;;;;;5098585;28;20211;-80
2023/06/19 11:59:56;;;;;;;7.65;6.95;;;;;;;;;;5097219;28;20213;-79
2023/06/19 12:02:23;;;;;;;7.73;6.47;;;;;;;;;;5111675;28;20286;-80
2023/06/19 12:04:51;;;;;;;6.97;6.37;;;;;;;;;;5097057;28;20211;-80
2023/06/19 12:07:18;;;;;;;7.20;6.57;;;;;;;;;;5090675;28;20230;-79
2023/06/19 12:09:44;;;;;;;7.43;6.83;;;;;;;;;;5093168;28;20203;-79
2023/06/19 12:12:11;;;;;;;9.37;6.53;;;;;;;;;;5111416;28;20644;-80
2023/06/19 12:14:39;;;;;;;7.97;6.93;;;;;;;;;;5095363;28;20200;-79
2023/06/19 12:17:08;;;;;;;7.47;6.83;;;;;;;;;;5099842;28;20585;-79
2023/06/19 12:19:35;;;;;;;7.73;6.20;;;;;;;;;;5094936;28;20200;-79
2023/06/19 12:22:05;;;;;;;7.30;6.23;;;;;;;;;;5100327;28;20206;-79
2023/06/19 12:24:31;;;;;;;7.03;6.43;;;;;;;;;;5097679;28;20215;-79
2023/06/19 12:26:58;;;;;;;6.73;6.13;;;;;;;;;;5100595;28;20211;-79
2023/06/19 12:29:26;;;;;;;7.30;6.63;;;;;;;;;;5093655;28;20196;-79
2023/06/19 12:31:52;;;;;;;7.27;6.57;;;;;;;;;;5111149;28;20331;-79
2023/06/19 12:34:20;;;;;;;7.87;6.67;;;;;;;;;;5093420;28;20212;-79
2023/06/19 12:36:51;;;;;;;5.83;5.30;;;;;;;;;;5101587;28;20774;-79
2023/06/19 12:39:19;;;;;;;7.22;6.63;;;;;;;;;;5091893;28;20200;-79
2023/06/19 12:41:46;;;;;;;7.00;6.30;;;;;;;;;;5102817;28;20203;-79
2023/06/19 12:44:13;;;;;;;9.50;6.77;;;;;;;;;;5091762;28;20203;-79
2023/06/19 12:46:40;;;;;;;7.03;6.33;;;;;;;;;;5102473;28;20284;-79
2023/06/19 12:49:07;;;;;;;5.70;5.20;;;;;;;;;;5105192;28;20641;-79
2023/06/19 12:51:35;;;;;;;5.70;4.72;;;;;;;;;;5091057;28;20235;-79
2023/06/19 12:54:02;;;;;;;6.28;5.68;;;;;;;;;;5110490;28;20246;-79
2023/06/19 12:56:31;;;;;;;5.93;5.43;;;;;;;;;;5110934;28;20223;-79
2023/06/19 12:58:59;;;;;;;5.82;5.43;;;;;;;;;;5103432;28;20220;-79
2023/06/19 13:01:26;;;;;;;7.53;5.55;;;;;;;;;;5104139;28;20203;-79
2023/06/19 13:03:52;;;;;;;5.07;4.68;;;;;;;;;;5110639;28;20203;-79
2023/06/19 13:06:19;;;;;;;4.88;4.40;;;;;;;;;;5096807;28;20207;-79
2023/06/19 13:08:46;;;;;;;5.72;5.05;;;;;;;;;;5103272;28;20249;-79
2023/06/19 13:11:13;;;;;;;4.85;4.15;;;;;;;;;;5106414;28;20709;-80
2023/06/19 13:13:41;;;;;;;4.65;4.28;;;;;;;;;;5107066;28;20196;-78
2023/06/19 13:16:09;;;;;;;5.55;4.60;;;;;;;;;;5108739;28;20231;-79
2023/06/19 13:18:36;;;;;;;5.43;4.95;;;;;;;;;;5114111;28;20203;-79
2023/06/19 13:21:02;;;;;;;4.55;4.22;;;;;;;;;;5114210;28;20680;-79
2023/06/19 13:23:30;;;;;;;5.85;5.35;;;;;;;;;;5114157;28;20207;-79
2023/06/19 13:25:57;;;;;;;5.68;5.03;;;;;;;;;;5114131;28;20211;-79
2023/06/19 13:28:24;;;;;;;5.18;4.78;;;;;;;;;;5104801;28;20212;-79
2023/06/19 13:30:52;;;;;;;5.05;4.63;;;;;;;;;;5109137;28;20248;-79
2023/06/19 13:33:19;;;;;;;5.40;4.95;;;;;;;;;;5104702;28;20204;-78
2023/06/19 13:35:49;;;;;;;5.18;4.78;;;;;;;;;;5109568;28;20224;-79
2023/06/19 13:38:17;;;;;;;7.97;6.15;;;;;;;;;;5103828;28;20200;-79
2023/06/19 13:40:44;;;;;;;6.93;6.10;;;;;;;;;;5096506;28;20202;-80
2023/06/19 13:43:11;;;;;;;7.00;6.30;;;;;;;;;;5113315;28;20691;-79
2023/06/19 13:45:38;;;;;;;11.00;9.32;;;;;;;;;;5110415;28;20586;-79
2023/06/19 13:48:06;;;;;;;12.20;8.77;;;;;;;;;;5093412;28;20209;-79
2023/06/19 13:50:34;;;;;;;8.45;6.85;;;;;;;;;;5110833;28;20235;-80
2023/06/19 13:53:01;;;;;;;7.28;6.47;;;;;;;;;;5102299;28;20591;-79
2023/06/19 13:55:28;;;;;;;6.20;5.70;;;;;;;;;;5106787;28;20579;-79
2023/06/19 13:57:55;;;;;;;7.18;6.47;;;;;;;;;;5104279;28;20208;-78
2023/06/19 14:00:22;;;;;;;7.28;6.57;;;;;;;;;;5113514;28;20203;-79
2023/06/19 14:02:50;;;;;;;6.35;5.85;;;;;;;;;;5101590;28;20213;-79
2023/06/19 14:05:18;;;;;;;9.40;6.20;;;;;;;;;;5106732;28;20705;-79
2023/06/19 14:07:45;;;;;;;9.40;5.65;;;;;;;;;;5092911;28;20204;-79
2023/06/19 14:10:12;;;;;;;6.57;5.97;;;;;;;;;;5093111;28;20204;-80
2023/06/19 14:12:39;;;;;;;8.05;7.25;;;;;;;;;;5105974;28;20290;-79
2023/06/19 14:15:07;;;;;;;6.03;5.53;;;;;;;;;;5093655;28;20203;-79
2023/06/19 14:17:34;;;;;;;6.72;6.13;;;;;;;;;;5105483;28;20187;-79
2023/06/19 14:20:04;;;;;;;6.30;5.80;;;;;;;;;;5093175;28;20232;-79
2023/06/19 14:22:32;;;;;;;7.00;6.35;;;;;;;;;;5105457;28;20713;-79
2023/06/19 14:25:01;;;;;;;6.15;5.65;;;;;;;;;;5100029;28;20200;-78
2023/06/19 14:27:28;;;;;;;8.93;5.70;;;;;;;;;;5111536;28;20206;-78
2023/06/19 14:29:55;;;;;;;6.72;6.03;;;;;;;;;;5092403;28;20200;-78
2023/06/19 14:32:23;;;;;;;6.88;6.28;;;;;;;;;;5107126;28;20203;-79
2023/06/19 14:34:49;;;;;;;6.90;6.20;;;;;;;;;;5104177;28;20273;-79
2023/06/19 14:37:16;;;;;;;6.38;4.63;;;;;;;;;;5093718;28;20232;-77
2023/06/19 14:39:44;;;;;;;4.50;4.10;;;;;;;;;;5104116;28;20260;-79
2023/06/19 14:42:11;;;;;;;5.10;4.47;;;;;;;;;;5094438;28;20204;-77
2023/06/19 14:44:38;;;;;;;5.18;4.68;;;;;;;;;;5112361;28;20208;-77
2023/06/19 14:47:06;;;;;;;5.10;4.43;;;;;;;;;;5109776;28;20204;-77